Time;durP1;ratioP1;P1;durP2;ratioP2;P2;SDS_P1;SDS_P2;PMS_P1;PMS_P2;Temp;Humidity;BMP_temperature;BMP_pressure;BME280_temperature;BME280_humidity;BME280_pressure;Samples;Min_cycle;Max_cycle;Signal;HPM_P1;HPM_P2
2022/03/12 00:00:56;;;;;;;15.40;6.85;;;;;;;8.87;33.26;101316.94;5028557;28;20029;-67
2022/03/12 00:03:22;;;;;;;14.63;7.07;;;;;;;8.98;32.20;101317.25;5027507;28;20859;-68
2022/03/12 00:05:54;;;;;;;14.02;7.47;;;;;;;8.98;32.06;101319.06;5035697;28;20571;-67
2022/03/12 00:08:21;;;;;;;17.90;7.45;;;;;;;8.97;32.53;101327.97;5006290;28;20068;-68
2022/03/12 00:10:51;;;;;;;12.40;6.10;;;;;;;9.01;32.27;101327.75;5000389;28;20220;-68
2022/03/12 00:13:20;;;;;;;10.90;6.55;;;;;;;9.03;32.67;101323.22;5000201;28;20149;-68
2022/03/12 00:15:47;;;;;;;11.65;6.80;;;;;;;8.99;32.20;101321.66;5031207;28;20072;-68
2022/03/12 00:18:17;;;;;;;13.85;6.97;;;;;;;8.98;32.98;101321.72;5037199;28;20228;-67
2022/03/12 00:20:44;;;;;;;14.32;7.70;;;;;;;8.93;32.78;101324.59;5020037;28;20037;-68
2022/03/12 00:23:11;;;;;;;13.13;7.63;;;;;;;8.93;32.37;101329.91;5020287;28;20120;-68
2022/03/12 00:25:42;;;;;;;12.30;6.68;;;;;;;9.01;32.44;101332.22;5034392;28;20037;-68
2022/03/12 00:28:08;;;;;;;14.75;7.22;;;;;;;8.84;33.29;101326.88;5021928;28;20494;-68
2022/03/12 00:30:35;;;;;;;15.27;6.93;;;;;;;8.96;32.24;101329.78;5041222;28;20044;-68
2022/03/12 00:33:01;;;;;;;11.57;6.65;;;;;;;8.86;33.11;101330.31;5028857;28;20135;-68
2022/03/12 00:35:27;;;;;;;13.25;6.70;;;;;;;8.85;33.35;101329.44;5033020;28;20049;-68
2022/03/12 00:37:52;;;;;;;15.43;7.20;;;;;;;8.94;32.04;101326.34;5023384;28;20096;-68
2022/03/12 00:40:20;;;;;;;13.77;7.30;;;;;;;8.75;33.84;101328.19;5021061;28;20059;-67
2022/03/12 00:42:45;;;;;;;16.42;7.43;;;;;;;8.82;32.93;101324.28;5020792;28;20486;-67
2022/03/12 00:45:11;;;;;;;10.88;6.28;;;;;;;8.90;32.84;101335.41;5021200;28;20045;-68
2022/03/12 00:47:37;;;;;;;12.95;6.78;;;;;;;8.82;33.46;101325.13;5020672;28;20069;-68
2022/03/12 00:50:03;;;;;;;13.98;7.13;;;;;;;8.68;34.39;101332.03;5019562;28;20048;-68
2022/03/12 00:52:29;;;;;;;11.40;6.85;;;;;;;8.77;32.81;101329.81;5020599;28;20167;-68
2022/03/12 00:54:56;;;;;;;11.10;6.82;;;;;;;8.73;32.89;101325.56;5020804;28;20149;-68
2022/03/12 00:57:21;;;;;;;13.57;7.18;;;;;;;8.62;34.07;101324.38;5020248;28;20067;-68
2022/03/12 00:59:46;;;;;;;12.05;6.68;;;;;;;8.71;33.93;101334.56;5020536;28;20059;-68
2022/03/12 01:02:16;;;;;;;21.20;7.10;;;;;;;8.70;33.40;101325.72;5021747;28;20092;-68
2022/03/12 01:04:43;;;;;;;12.32;6.88;;;;;;;8.62;33.74;101330.53;5020282;28;20045;-68
2022/03/12 01:07:10;;;;;;;13.23;6.75;;;;;;;8.61;33.92;101336.81;5020414;28;20859;-68
2022/03/12 01:09:36;;;;;;;16.75;7.30;;;;;;;8.54;34.18;101341.56;5018605;28;20149;-68
2022/03/12 01:12:02;;;;;;;12.63;7.07;;;;;;;8.65;34.16;101338.38;5018953;28;20092;-69
2022/03/12 01:14:29;;;;;;;17.42;7.55;;;;;;;8.64;33.88;101341.97;5020727;28;20042;-68
2022/03/12 01:16:57;;;;;;;15.85;7.90;;;;;;;8.66;33.98;101337.44;5021491;28;20048;-69
2022/03/12 01:19:23;;;;;;;14.35;7.72;;;;;;;8.74;34.00;101345.06;5012143;28;20033;-68
2022/03/12 01:21:48;;;;;;;15.30;7.20;;;;;;;8.79;33.94;101335.94;5017027;28;20060;-67
2022/03/12 01:24:13;;;;;;;17.25;7.55;;;;;;;8.74;34.66;101345.06;5020228;28;20437;-69
2022/03/12 01:26:40;;;;;;;13.75;7.25;;;;;;;8.82;33.78;101346.41;5020375;28;20064;-68
2022/03/12 01:29:07;;;;;;;12.85;7.72;;;;;;;8.82;34.01;101342.88;5020373;28;20096;-68
2022/03/12 01:31:34;;;;;;;13.32;7.15;;;;;;;8.81;34.28;101343.81;5020276;28;20050;-68
2022/03/12 01:34:00;;;;;;;14.82;6.85;;;;;;;8.86;33.94;101349.78;5018288;28;20073;-68
2022/03/12 01:36:25;;;;;;;17.50;7.43;;;;;;;8.98;33.03;101350.97;5000977;28;20224;-69
2022/03/12 01:38:54;;;;;;;11.10;7.18;;;;;;;8.80;34.06;101342.09;5000789;28;20475;-68
2022/03/12 01:41:22;;;;;;;13.80;7.53;;;;;;;8.82;34.14;101345.53;5000714;28;20044;-68
2022/03/12 01:43:49;;;;;;;14.93;7.07;;;;;;;8.69;34.60;101355.91;5000729;28;20886;-68
2022/03/12 01:46:15;;;;;;;15.25;7.85;;;;;;;8.68;34.34;101346.19;4999503;28;20073;-68
2022/03/12 01:48:50;;;;;;;11.57;6.63;;;;;;;8.72;34.45;101345.13;5001287;28;20046;-68
2022/03/12 01:51:16;;;;;;;15.13;7.40;;;;;;;8.71;34.41;101347.88;5000815;28;20081;-68
2022/03/12 01:53:42;;;;;;;13.40;7.10;;;;;;;8.66;35.26;101344.56;5000689;28;20037;-68
2022/03/12 01:56:09;;;;;;;13.30;7.25;;;;;;;8.67;34.39;101346.28;5000328;28;20045;-68
2022/03/12 01:58:35;;;;;;;13.20;7.10;;;;;;;8.51;36.24;101343.47;5000648;28;20041;-68
2022/03/12 02:01:02;;;;;;;15.85;7.93;;;;;;;8.70;34.02;101356.78;5019498;28;20040;-67
2022/03/12 02:03:30;;;;;;;14.18;7.75;;;;;;;8.68;34.46;101350.66;5019863;28;20103;-68
2022/03/12 02:05:56;;;;;;;12.20;6.38;;;;;;;8.69;34.70;101352.41;5019810;28;20602;-68
2022/03/12 02:08:22;;;;;;;15.80;7.63;;;;;;;8.63;35.82;101350.00;5019972;28;20111;-68
2022/03/12 02:10:50;;;;;;;15.43;7.53;;;;;;;8.64;34.86;101351.75;5022434;28;20045;-68
2022/03/12 02:13:17;;;;;;;15.82;7.07;;;;;;;8.66;35.22;101361.38;5023477;28;20037;-68
2022/03/12 02:15:43;;;;;;;20.65;8.60;;;;;;;8.60;36.29;101355.50;5023717;28;20041;-67
2022/03/12 02:18:09;;;;;;;17.73;7.57;;;;;;;8.71;35.35;101356.69;5024420;28;20045;-69
2022/03/12 02:20:38;;;;;;;11.82;7.13;;;;;;;8.67;35.21;101355.09;5023554;28;20037;-68
2022/03/12 02:23:03;;;;;;;12.80;7.75;;;;;;;8.69;35.25;101352.41;5023576;28;20592;-67
2022/03/12 02:25:33;;;;;;;12.18;7.25;;;;;;;8.64;36.71;101359.72;5023479;28;20042;-69
2022/03/12 02:28:00;;;;;;;15.30;7.68;;;;;;;8.66;35.90;101365.81;5023576;28;20383;-68
2022/03/12 02:30:47;;;;;;;15.60;7.60;;;;;;;8.66;36.08;101358.72;5021831;28;20124;-69
2022/03/12 02:33:13;;;;;;;13.30;7.50;;;;;;;8.68;35.76;101358.63;5023361;28;20058;-68
2022/03/12 02:35:40;;;;;;;21.20;7.75;;;;;;;8.63;36.66;101365.97;5023436;28;20784;-68
2022/03/12 02:38:07;;;;;;;16.88;8.35;;;;;;;8.63;36.59;101376.59;5023429;28;20119;-68
2022/03/12 02:40:33;;;;;;;15.98;7.45;;;;;;;8.57;35.96;101375.94;5023229;28;20051;-68
2022/03/12 02:43:00;;;;;;;15.68;8.50;;;;;;;8.54;36.71;101376.09;5023050;28;20140;-68
2022/03/12 02:45:29;;;;;;;16.60;7.38;;;;;;;8.64;36.39;101371.22;5022847;28;20052;-68
2022/03/12 02:47:55;;;;;;;15.10;6.93;;;;;;;8.53;38.31;101373.50;5023133;28;20037;-68
2022/03/12 02:50:23;;;;;;;12.50;7.80;;;;;;;8.54;37.57;101377.91;5023198;28;20479;-68
2022/03/12 02:52:49;;;;;;;19.48;7.50;;;;;;;8.44;38.84;101376.59;5022904;28;20037;-70
2022/03/12 02:55:23;;;;;;;16.20;7.80;;;;;;;8.42;39.05;101379.31;5023072;28;20483;-69
2022/03/12 02:57:50;;;;;;;17.75;7.95;;;;;;;8.42;38.46;101365.16;5023065;28;20850;-69
2022/03/12 03:00:17;;;;;;;16.50;8.13;;;;;;;8.42;38.38;101373.13;5023534;28;20049;-68
2022/03/12 03:02:52;;;;;;;13.18;7.70;;;;;;;8.48;38.11;101371.09;5023764;28;20076;-69
2022/03/12 03:05:21;;;;;;;14.00;7.78;;;;;;;8.41;39.36;101372.28;5023990;28;20124;-69
2022/03/12 03:07:48;;;;;;;12.93;8.02;;;;;;;8.49;37.99;101374.59;5022634;28;20073;-68
2022/03/12 03:10:30;;;;;;;20.02;8.63;;;;;;;8.41;38.76;101372.28;5022702;28;20120;-68
2022/03/12 03:12:58;;;;;;;17.77;8.57;;;;;;;8.37;39.60;101376.00;5023680;28;20041;-69
2022/03/12 03:15:23;;;;;;;14.95;8.32;;;;;;;8.35;41.11;101372.53;5023736;28;20925;-68
2022/03/12 03:17:48;;;;;;;24.38;9.02;;;;;;;8.39;39.89;101386.59;5022141;28;20060;-69
2022/03/12 03:20:16;;;;;;;16.60;7.72;;;;;;;8.37;40.46;101375.16;5022120;28;20052;-67
2022/03/12 03:22:41;;;;;;;22.30;8.68;;;;;;;8.32;40.74;101373.53;5003078;28;20042;-68
2022/03/12 03:25:09;;;;;;;17.85;8.15;;;;;;;8.34;39.99;101384.09;5003250;28;20807;-68
2022/03/12 03:27:35;;;;;;;15.68;8.73;;;;;;;8.34;39.44;101386.75;5004007;28;20141;-67
2022/03/12 03:30:00;;;;;;;15.07;8.10;;;;;;;8.34;39.51;101383.25;5003776;28;20038;-67
2022/03/12 03:32:26;;;;;;;18.38;8.65;;;;;;;8.30;39.43;101386.03;5003662;28;20053;-68
2022/03/12 03:34:51;;;;;;;18.40;8.27;;;;;;;8.37;39.63;101397.25;5003471;28;20040;-68
2022/03/12 03:37:17;;;;;;;15.95;8.75;;;;;;;8.35;40.60;101395.59;5003374;28;20038;-68
2022/03/12 03:39:42;;;;;;;19.25;8.85;;;;;;;8.40;39.84;101389.16;5005112;28;20042;-68
2022/03/12 03:42:08;;;;;;;16.50;8.40;;;;;;;8.39;39.97;101386.59;5006044;28;20050;-67
2022/03/12 03:44:33;;;;;;;14.77;7.72;;;;;;;8.37;40.01;101396.41;5006399;28;20077;-68
2022/03/12 03:46:59;;;;;;;15.07;9.13;;;;;;;8.34;40.34;101399.19;5006816;28;20041;-68
2022/03/12 03:49:24;;;;;;;17.10;8.40;;;;;;;8.27;40.71;101404.75;5006962;28;20091;-68
2022/03/12 03:51:51;;;;;;;16.65;9.00;;;;;;;8.32;40.36;101407.19;5006844;28;20560;-67
2022/03/12 03:54:17;;;;;;;14.32;8.27;;;;;;;8.31;41.02;101402.81;5005276;28;20042;-68
2022/03/12 03:56:43;;;;;;;16.63;9.02;;;;;;;8.35;40.86;101401.75;5003595;28;20088;-67
2022/03/12 03:59:09;;;;;;;18.15;9.75;;;;;;;8.34;39.95;101408.00;5002511;28;20762;-68
2022/03/12 04:01:41;;;;;;;17.75;8.55;;;;;;;8.33;40.54;101414.22;5002993;28;20066;-69
2022/03/12 04:04:07;;;;;;;18.67;8.43;;;;;;;8.31;40.76;101406.34;5003396;28;20079;-68
2022/03/12 04:06:33;;;;;;;16.88;8.75;;;;;;;8.30;40.24;101409.06;5002878;28;20088;-68
2022/03/12 04:08:58;;;;;;;17.50;8.68;;;;;;;8.26;41.75;101415.44;5000869;28;20114;-67
2022/03/12 04:11:25;;;;;;;21.38;8.27;;;;;;;8.25;40.30;101403.09;5001800;28;20463;-68
2022/03/12 04:13:53;;;;;;;13.65;8.55;;;;;;;8.31;40.70;101409.00;5001751;28;20053;-68
2022/03/12 04:16:20;;;;;;;15.60;8.95;;;;;;;8.28;41.09;101410.91;5001680;28;20049;-68
2022/03/12 04:18:48;;;;;;;16.75;8.75;;;;;;;8.25;40.97;101411.06;5001287;28;20821;-67
2022/03/12 04:21:16;;;;;;;15.77;8.93;;;;;;;8.28;41.34;101405.59;5010223;28;20533;-67
2022/03/12 04:23:42;;;;;;;18.92;8.70;;;;;;;8.21;41.74;101404.16;5021253;28;20052;-67
2022/03/12 04:26:09;;;;;;;17.38;8.50;;;;;;;8.23;41.37;101405.84;5021223;28;20214;-67
2022/03/12 04:28:35;;;;;;;14.70;8.25;;;;;;;8.18;42.63;101414.91;5020732;28;20041;-67
2022/03/12 04:31:02;;;;;;;17.88;9.57;;;;;;;8.16;42.84;101424.75;5021635;28;20541;-68
2022/03/12 04:33:29;;;;;;;15.35;8.35;;;;;;;8.13;41.69;101427.53;5018350;28;20068;-67
2022/03/12 04:35:56;;;;;;;17.70;8.75;;;;;;;8.10;43.00;101431.22;5020600;28;20911;-68
2022/03/12 04:38:22;;;;;;;15.65;8.73;;;;;;;8.08;43.29;101426.88;5020722;28;20049;-68
2022/03/12 04:40:48;;;;;;;26.42;8.75;;;;;;;8.11;42.35;101427.63;5020689;28;20060;-68
2022/03/12 04:43:18;;;;;;;17.33;8.93;;;;;;;8.10;43.18;101423.25;5021225;28;20046;-69
2022/03/12 04:45:45;;;;;;;15.75;9.30;;;;;;;8.08;42.80;101433.03;5018847;28;20041;-69
2022/03/12 04:48:19;;;;;;;19.92;8.70;;;;;;;8.08;43.18;101434.84;5020523;28;20045;-68
2022/03/12 04:50:45;;;;;;;18.52;8.10;;;;;;;8.04;44.20;101442.97;5019900;28;20041;-68
2022/03/12 04:53:11;;;;;;;17.35;9.32;;;;;;;8.03;43.72;101438.59;5019714;28;20091;-71
2022/03/12 04:55:37;;;;;;;18.50;10.07;;;;;;;8.02;44.49;101438.63;5018899;28;20076;-67
2022/03/12 04:58:07;;;;;;;16.45;9.50;;;;;;;8.03;44.27;101445.66;5020650;28;20053;-68
2022/03/12 05:00:38;;;;;;;16.85;9.00;;;;;;;7.97;44.53;101449.44;5020366;28;20052;-68
2022/03/12 05:03:12;;;;;;;17.90;9.38;;;;;;;7.94;45.71;101451.41;5020740;28;20123;-68
2022/03/12 05:05:40;;;;;;;15.68;9.15;;;;;;;7.89;45.43;101458.69;5020486;28;20081;-68
2022/03/12 05:08:10;;;;;;;18.50;8.57;;;;;;;7.94;45.72;101454.06;5020718;28;20042;-68
2022/03/12 05:10:35;;;;;;;21.85;9.82;;;;;;;7.91;45.81;101457.69;5020520;28;20113;-68
2022/03/12 05:13:01;;;;;;;18.58;8.73;;;;;;;7.86;46.16;101461.47;5019069;28;20127;-68
2022/03/12 05:15:37;;;;;;;18.13;9.55;;;;;;;7.82;46.30;101458.06;5018870;28;20095;-68
2022/03/12 05:18:07;;;;;;;21.27;9.23;;;;;;;7.72;46.78;101467.34;5034082;28;20033;-68
2022/03/12 05:20:35;;;;;;;18.15;9.77;;;;;;;7.67;46.36;101464.88;5017080;28;20134;-69
2022/03/12 05:23:01;;;;;;;22.90;10.32;;;;;;;7.47;47.75;101472.78;5035452;28;20041;-67
2022/03/12 05:25:29;;;;;;;16.13;9.07;;;;;;;7.41;47.65;101467.75;5021073;28;20412;-68
2022/03/12 05:27:55;;;;;;;20.42;9.50;;;;;;;7.44;47.54;101472.94;5020930;28;20030;-67
2022/03/12 05:30:21;;;;;;;18.75;10.10;;;;;;;7.40;47.27;101466.88;5021004;28;20508;-68
2022/03/12 05:32:50;;;;;;;20.08;9.50;;;;;;;7.36;47.79;101473.22;5020550;28;20113;-68
2022/03/12 05:35:19;;;;;;;19.35;10.10;;;;;;;7.34;47.23;101467.13;5020398;28;20030;-67
2022/03/12 05:37:47;;;;;;;15.57;9.05;;;;;;;7.46;46.79;101476.38;5020891;28;20603;-67
2022/03/12 05:40:18;;;;;;;17.27;9.25;;;;;;;7.34;47.09;101471.56;5020818;28;20057;-68
2022/03/12 05:42:44;;;;;;;18.13;9.45;;;;;;;7.25;47.73;101481.59;5019513;28;20133;-67
2022/03/12 05:45:10;;;;;;;16.08;9.60;;;;;;;7.13;48.29;101481.22;5023521;28;20431;-67
2022/03/12 05:47:40;;;;;;;16.20;9.52;;;;;;;7.06;48.10;101485.91;5024261;28;20044;-67
2022/03/12 05:50:10;;;;;;;19.75;10.10;;;;;;;6.92;48.60;101485.56;5023945;28;20064;-67
2022/03/12 05:52:37;;;;;;;17.30;9.18;;;;;;;6.94;48.48;101494.34;5038160;28;20561;-67
2022/03/12 05:55:05;;;;;;;16.00;8.48;;;;;;;6.88;48.62;101484.81;5023873;28;20048;-67
2022/03/12 05:57:31;;;;;;;24.08;8.88;;;;;;;6.94;47.76;101487.25;5022492;28;20041;-69
2022/03/12 05:59:57;;;;;;;21.52;9.48;;;;;;;6.98;47.86;101490.66;5023481;28;20052;-69
2022/03/12 06:02:22;;;;;;;20.13;9.70;;;;;;;6.91;48.58;101492.66;5023665;28;20049;-68
2022/03/12 06:04:48;;;;;;;18.77;8.88;;;;;;;6.94;48.06;101496.97;5023291;28;20054;-68
2022/03/12 06:07:14;;;;;;;21.70;9.60;;;;;;;7.00;48.40;101487.00;5024497;28;20049;-68
2022/03/12 06:09:40;;;;;;;20.95;9.93;;;;;;;7.00;47.92;101499.41;5023464;28;20037;-68
2022/03/12 06:12:07;;;;;;;20.67;9.60;;;;;;;7.05;48.09;101496.56;5023156;28;20045;-68
2022/03/12 06:14:36;;;;;;;18.48;9.50;;;;;;;7.02;48.13;101508.16;5023586;28;20590;-68
2022/03/12 06:17:02;;;;;;;17.77;8.40;;;;;;;7.10;48.17;101505.22;5013949;28;20803;-68
2022/03/12 06:19:29;;;;;;;19.83;9.48;;;;;;;7.19;47.23;101500.44;5004941;28;20139;-68
2022/03/12 06:21:56;;;;;;;18.13;9.18;;;;;;;7.21;47.46;101503.88;5014901;28;20100;-69
2022/03/12 06:24:22;;;;;;;17.30;9.13;;;;;;;7.30;47.47;101501.78;5015191;28;20095;-68
2022/03/12 06:26:47;;;;;;;17.65;8.90;;;;;;;7.40;46.75;101503.16;5007079;28;20041;-69
2022/03/12 06:29:13;;;;;;;15.98;8.90;;;;;;;7.46;46.79;101508.22;5012285;28;20033;-68
2022/03/12 06:31:41;;;;;;;16.75;8.55;;;;;;;7.54;46.66;101514.09;5017631;28;20129;-67
2022/03/12 06:34:09;;;;;;;17.13;8.65;;;;;;;7.62;47.24;101508.47;5020527;28;20076;-68
2022/03/12 06:36:37;;;;;;;22.83;9.48;;;;;;;7.63;46.92;101508.44;5022404;28;20056;-67
2022/03/12 06:39:04;;;;;;;17.77;9.73;;;;;;;7.56;47.55;101512.22;5022307;28;20042;-68
2022/03/12 06:41:38;;;;;;;18.17;9.30;;;;;;;7.73;46.90;101520.41;5022597;28;20156;-68
2022/03/12 06:44:03;;;;;;;20.08;9.43;;;;;;;7.85;47.21;101519.03;5020552;28;20095;-67
2022/03/12 06:46:31;;;;;;;17.45;8.50;;;;;;;8.10;46.57;101525.97;5022480;28;20037;-68
2022/03/12 06:48:56;;;;;;;16.95;9.10;;;;;;;8.19;46.50;101537.06;5020782;28;20844;-68
2022/03/12 06:51:22;;;;;;;19.20;9.52;;;;;;;8.03;46.40;101525.34;5009849;28;20029;-68
2022/03/12 06:53:47;;;;;;;17.85;8.82;;;;;;;8.14;47.09;101538.19;5014043;28;20037;-68
2022/03/12 06:56:13;;;;;;;24.02;9.45;;;;;;;8.24;46.71;101543.06;5014216;28;20112;-68
2022/03/12 06:58:38;;;;;;;13.98;8.63;;;;;;;8.31;46.93;101535.69;5011647;28;20679;-68
2022/03/12 07:01:03;;;;;;;20.25;9.60;;;;;;;8.29;46.30;101541.06;5019203;28;20655;-68
2022/03/12 07:03:29;;;;;;;19.30;9.32;;;;;;;8.35;47.00;101545.25;5020928;28;20045;-68
2022/03/12 07:05:54;;;;;;;22.83;10.15;;;;;;;8.40;46.95;101545.09;5018433;28;20045;-68
2022/03/12 07:08:21;;;;;;;15.75;8.40;;;;;;;8.30;46.22;101548.09;5017705;28;20037;-68
2022/03/12 07:10:47;;;;;;;15.90;9.35;;;;;;;8.30;47.50;101542.78;5025915;28;20501;-68
2022/03/12 07:13:13;;;;;;;26.27;10.20;;;;;;;8.58;46.80;101546.94;5022401;28;20786;-68
2022/03/12 07:15:38;;;;;;;15.90;8.70;;;;;;;8.77;47.33;101557.63;5018373;28;20115;-68
2022/03/12 07:18:04;;;;;;;20.15;9.38;;;;;;;8.89;45.51;101556.25;5014022;28;20048;-68
2022/03/12 07:20:30;;;;;;;16.33;9.10;;;;;;;9.10;45.83;101544.63;5019244;28;20033;-68
2022/03/12 07:22:55;;;;;;;16.95;9.77;;;;;;;9.19;45.83;101535.34;5022249;28;20095;-68
2022/03/12 07:25:21;;;;;;;16.20;9.07;;;;;;;9.25;45.34;101546.56;5022432;28;20040;-69
2022/03/12 07:27:47;;;;;;;18.85;10.07;;;;;;;9.42;45.45;101542.25;5015302;28;20561;-68
2022/03/12 07:30:14;;;;;;;15.02;8.65;;;;;;;9.71;45.62;101547.03;5011914;28;20060;-68
2022/03/12 07:32:42;;;;;;;18.55;8.68;;;;;;;9.63;46.47;101557.19;5014127;28;20138;-68
2022/03/12 07:35:08;;;;;;;16.38;8.77;;;;;;;9.94;44.70;101551.25;5013653;28;20037;-67
2022/03/12 07:37:34;;;;;;;17.95;9.40;;;;;;;10.07;45.41;101565.69;5020285;28;20037;-68
2022/03/12 07:40:00;;;;;;;15.90;9.30;;;;;;;10.19;44.96;101568.66;5021776;28;20045;-68
2022/03/12 07:42:26;;;;;;;21.17;8.90;;;;;;;10.07;44.91;101573.66;5021004;28;20033;-68
2022/03/12 07:44:52;;;;;;;18.25;8.77;;;;;;;10.08;45.33;101562.06;5012223;28;20566;-68
2022/03/12 07:47:18;;;;;;;16.45;8.85;;;;;;;10.20;45.41;101559.75;5016815;28;20034;-68
2022/03/12 07:49:44;;;;;;;18.85;8.88;;;;;;;10.37;45.75;101568.63;5017053;28;20497;-68
2022/03/12 07:52:10;;;;;;;49.33;23.92;;;;;;;10.20;44.49;101565.09;5014150;28;20033;-68
2022/03/12 07:54:36;;;;;;;40.33;18.67;;;;;;;10.43;46.06;101571.94;5012245;28;20051;-68
2022/03/12 07:57:02;;;;;;;29.90;17.33;;;;;;;10.44;45.27;101573.66;5015273;28;20037;-68
2022/03/12 07:59:29;;;;;;;29.35;12.95;;;;;;;10.48;46.09;101565.41;5013942;28;20102;-68
2022/03/12 08:01:55;;;;;;;18.65;10.57;;;;;;;10.56;45.56;101573.03;5014231;28;20037;-68
2022/03/12 08:04:20;;;;;;;18.77;10.52;;;;;;;10.81;45.50;101583.28;5019431;28;20394;-68
2022/03/12 08:06:46;;;;;;;36.47;17.20;;;;;;;10.82;46.67;101577.00;5021290;28;20041;-68
2022/03/12 08:09:11;;;;;;;75.45;33.50;;;;;;;10.99;45.45;101584.13;5021025;28;20037;-68
2022/03/12 08:11:37;;;;;;;24.70;14.40;;;;;;;10.95;46.06;101591.44;5021185;28;20279;-68
2022/03/12 08:14:09;;;;;;;21.13;9.80;;;;;;;11.05;45.55;101589.16;5021005;28;20041;-67
2022/03/12 08:16:37;;;;;;;14.18;8.05;;;;;;;11.14;45.41;101594.88;5020976;28;20034;-67
2022/03/12 08:19:07;;;;;;;17.85;8.65;;;;;;;11.38;45.17;101587.31;5021743;28;20115;-67
2022/03/12 08:21:33;;;;;;;17.95;8.73;;;;;;;11.48;46.33;101600.16;5021078;28;20120;-67
2022/03/12 08:24:01;;;;;;;16.05;8.75;;;;;;;11.38;46.70;101594.47;5020734;28;20700;-67
2022/03/12 08:26:27;;;;;;;17.13;8.93;;;;;;;11.40;46.38;101600.59;5021607;28;20577;-68
2022/03/12 08:28:53;;;;;;;18.00;8.30;;;;;;;11.39;45.90;101598.84;5021002;28;20052;-67
2022/03/12 08:31:20;;;;;;;15.45;8.52;;;;;;;11.28;46.43;101604.78;5021011;28;20060;-67
2022/03/12 08:33:45;;;;;;;15.05;9.48;;;;;;;11.49;46.29;101604.53;5022619;28;20454;-71
2022/03/12 08:36:13;;;;;;;13.93;8.68;;;;;;;11.56;46.04;101614.81;5021734;28;20065;-72
2022/03/12 08:38:44;;;;;;;18.33;9.38;;;;;;;11.43;47.59;101627.13;5020980;28;20513;-72
2022/03/12 08:41:12;;;;;;;14.50;8.60;;;;;;;11.45;46.28;101635.06;5021956;28;20125;-73
2022/03/12 08:43:38;;;;;;;15.82;9.23;;;;;;;11.61;47.72;101625.25;5021288;28;20227;-70
2022/03/12 08:46:07;;;;;;;15.45;8.40;;;;;;;11.84;46.42;101634.69;5021875;28;20045;-68
2022/03/12 08:48:33;;;;;;;15.65;8.88;;;;;;;11.89;46.51;101635.28;5020745;28;20692;-69
2022/03/12 08:50:59;;;;;;;14.90;8.48;;;;;;;11.99;46.86;101638.31;5020366;28;20353;-69
2022/03/12 08:53:24;;;;;;;16.92;8.70;;;;;;;12.00;47.33;101640.91;5020592;28;20179;-69
2022/03/12 08:55:50;;;;;;;15.10;8.77;;;;;;;11.94;47.52;101649.25;5020434;28;20406;-68
2022/03/12 08:58:15;;;;;;;19.90;9.80;;;;;;;12.13;47.38;101649.94;5020809;28;20044;-68
2022/03/12 09:00:42;;;;;;;16.70;8.60;;;;;;;12.01;47.48;101655.16;5003148;28;20054;-69
2022/03/12 09:03:09;;;;;;;15.35;8.63;;;;;;;12.27;48.11;101653.66;5000427;28;20054;-70
2022/03/12 09:05:36;;;;;;;15.90;8.88;;;;;;;12.08;47.79;101651.16;5001202;28;20487;-67
2022/03/12 09:08:02;;;;;;;14.48;8.82;;;;;;;12.15;48.30;101653.41;5005843;28;20037;-68
2022/03/12 09:10:28;;;;;;;13.70;8.07;;;;;;;12.03;48.18;101647.88;5016001;28;20807;-66
2022/03/12 09:12:53;;;;;;;14.48;8.80;;;;;;;12.05;48.89;101652.22;5020012;28;20114;-68
2022/03/12 09:15:24;;;;;;;14.98;8.95;;;;;;;12.13;48.96;101644.59;5019662;28;20124;-67
2022/03/12 09:17:50;;;;;;;17.15;9.38;;;;;;;12.15;49.44;101641.84;5020511;28;20040;-67
2022/03/12 09:20:16;;;;;;;16.42;8.43;;;;;;;12.60;48.35;101649.03;5024187;28;20410;-67
2022/03/12 09:22:41;;;;;;;14.73;8.88;;;;;;;12.63;48.84;101654.19;5014080;28;20099;-67
2022/03/12 09:25:09;;;;;;;13.77;8.63;;;;;;;12.55;48.81;101637.72;5014956;28;20037;-67
2022/03/12 09:27:35;;;;;;;13.80;8.65;;;;;;;12.78;48.84;101639.03;5030556;28;20041;-68
2022/03/12 09:30:01;;;;;;;15.73;8.55;;;;;;;12.86;48.58;101649.28;5005553;28;20041;-67
2022/03/12 09:32:27;;;;;;;12.95;8.10;;;;;;;13.02;49.71;101649.22;5004968;28;20823;-66
2022/03/12 09:34:53;;;;;;;16.02;8.38;;;;;;;13.02;49.43;101634.00;5005203;28;20049;-67
2022/03/12 09:37:19;;;;;;;14.07;7.85;;;;;;;13.19;49.78;101641.00;5005016;28;20092;-67
2022/03/12 09:39:44;;;;;;;15.02;9.38;;;;;;;12.98;49.93;101643.19;5004765;28;20038;-67
2022/03/12 09:42:10;;;;;;;15.10;8.88;;;;;;;13.14;49.60;101643.97;5004410;28;20505;-68
2022/03/12 09:44:36;;;;;;;13.63;8.25;;;;;;;13.39;50.05;101645.16;5004131;28;20041;-67
2022/03/12 09:47:01;;;;;;;19.00;8.48;;;;;;;13.35;50.90;101646.31;5003988;28;20045;-67
2022/03/12 09:49:27;;;;;;;13.95;8.15;;;;;;;13.47;51.01;101648.25;5003831;28;20046;-68
2022/03/12 09:51:53;;;;;;;17.38;7.78;;;;;;;13.44;50.59;101653.78;5003804;28;20057;-67
2022/03/12 09:54:18;;;;;;;12.98;7.97;;;;;;;13.45;51.13;101658.16;5004129;28;20041;-68
2022/03/12 09:56:45;;;;;;;13.00;7.43;;;;;;;13.60;51.26;101664.38;5003625;28;20479;-67
2022/03/12 09:59:10;;;;;;;12.23;7.38;;;;;;;13.80;51.17;101661.31;5003863;28;20450;-67
2022/03/12 10:01:36;;;;;;;12.68;7.30;;;;;;;13.86;50.06;101652.91;5003864;28;20041;-67
2022/03/12 10:04:02;;;;;;;12.68;6.90;;;;;;;13.87;50.35;101651.94;5003844;28;20034;-67
2022/03/12 10:06:31;;;;;;;12.00;6.97;;;;;;;13.83;50.43;101652.22;5003651;28;20506;-67
2022/03/12 10:08:56;;;;;;;13.55;7.82;;;;;;;14.22;49.92;101652.31;5003737;28;20038;-67
2022/03/12 10:11:22;;;;;;;12.40;7.68;;;;;;;14.50;50.55;101659.41;5024922;28;20059;-67
2022/03/12 10:13:48;;;;;;;12.65;7.07;;;;;;;14.35;49.58;101649.66;5031931;28;20037;-68
2022/03/12 10:16:14;;;;;;;12.38;6.80;;;;;;;14.37;49.84;101653.13;5028246;28;20755;-67
2022/03/12 10:18:41;;;;;;;15.65;7.70;;;;;;;14.59;49.18;101655.25;5022233;28;20041;-67
2022/03/12 10:21:06;;;;;;;16.65;6.90;;;;;;;14.32;49.94;101643.66;5014102;28;20042;-68
2022/03/12 10:23:33;;;;;;;15.80;7.28;;;;;;;14.22;50.37;101660.38;5015862;28;20103;-67
2022/03/12 10:25:58;;;;;;;17.52;6.85;;;;;;;14.32;49.33;101641.00;5030502;28;20466;-67
2022/03/12 10:28:24;;;;;;;15.32;6.32;;;;;;;14.58;49.90;101647.31;5028318;28;20037;-67
2022/03/12 10:30:49;;;;;;;10.90;6.60;;;;;;;14.84;48.74;101653.59;5036474;28;20052;-67
2022/03/12 10:33:23;;;;;;;17.73;7.63;;;;;;;14.71;49.90;101646.41;5021648;28;20045;-69
2022/03/12 10:35:49;;;;;;;11.88;6.38;;;;;;;14.75;49.11;101645.19;5021571;28;20049;-67
2022/03/12 10:38:15;;;;;;;10.40;7.28;;;;;;;15.07;48.83;101649.34;5034716;28;20476;-67
2022/03/12 10:40:41;;;;;;;9.65;6.32;;;;;;;14.96;48.32;101652.75;5023977;28;20050;-67
2022/03/12 10:43:15;;;;;;;10.65;5.50;;;;;;;14.99;49.09;101648.03;5021610;28;20534;-68
2022/03/12 10:45:40;;;;;;;9.10;5.20;;;;;;;15.26;48.76;101658.72;5029860;28;20518;-67
2022/03/12 10:48:06;;;;;;;9.45;4.97;;;;;;;15.22;47.65;101659.88;5039771;28;20043;-67
2022/03/12 10:50:36;;;;;;;10.07;4.65;;;;;;;14.95;47.95;101659.09;5024867;28;20560;-67
2022/03/12 10:53:05;;;;;;;8.52;5.18;;;;;;;15.12;47.66;101666.00;5021231;28;20712;-67
2022/03/12 10:55:34;;;;;;;10.32;5.15;;;;;;;14.77;48.41;101667.47;5028033;28;20136;-68
2022/03/12 10:58:04;;;;;;;9.57;4.47;;;;;;;14.84;48.15;101667.88;5040995;28;20611;-67
2022/03/12 11:00:40;;;;;;;8.13;4.68;;;;;;;14.99;47.71;101664.16;5041077;28;20068;-67
2022/03/12 11:03:13;;;;;;;10.25;4.15;;;;;;;14.62;48.00;101662.25;5037044;28;20434;-67
2022/03/12 11:05:42;;;;;;;9.88;4.38;;;;;;;14.71;47.83;101670.56;5029712;28;20048;-67
2022/03/12 11:08:16;;;;;;;10.45;4.22;;;;;;;15.31;47.52;101681.69;5041037;28;20144;-68
2022/03/12 11:10:58;;;;;;;9.18;4.57;;;;;;;15.47;47.17;101685.91;5040389;28;20068;-68
2022/03/12 11:13:44;;;;;;;8.38;4.18;;;;;;;15.25;46.98;101694.59;5027296;28;20045;-67
2022/03/12 11:16:24;;;;;;;7.47;4.32;;;;;;;15.16;47.28;101686.31;5027708;28;20167;-68
2022/03/12 11:18:52;;;;;;;11.68;4.57;;;;;;;15.13;47.24;101683.84;5022431;28;20056;-68
2022/03/12 11:21:51;;;;;;;7.18;4.40;;;;;;;15.38;47.54;101691.06;5033437;28;20029;-68